sensor_id;sensor_type;location;lat;lon;timestamp;temperature;humidity
62809;DHT22;48848;39.002;-94.584;2023-04-06T00:01:07;19.80;36.40
62809;DHT22;48848;39.002;-94.584;2023-04-06T00:03:33;19.80;36.10
62809;DHT22;48848;39.002;-94.584;2023-04-06T00:05:59;19.80;35.60
62809;DHT22;48848;39.002;-94.584;2023-04-06T00:08:25;19.80;35.60
62809;DHT22;48848;39.002;-94.584;2023-04-06T00:10:51;19.80;35.80
62809;DHT22;48848;39.002;-94.584;2023-04-06T00:13:17;19.80;35.30
62809;DHT22;48848;39.002;-94.584;2023-04-06T00:15:43;19.80;35.20
62809;DHT22;48848;39.002;-94.584;2023-04-06T00:18:08;19.80;35.30
62809;DHT22;48848;39.002;-94.584;2023-04-06T00:20:34;19.70;35.20
62809;DHT22;48848;39.002;-94.584;2023-04-06T00:23:00;19.70;35.90
62809;DHT22;48848;39.002;-94.584;2023-04-06T00:25:26;19.70;35.80
62809;DHT22;48848;39.002;-94.584;2023-04-06T00:27:52;19.70;36.00
62809;DHT22;48848;39.002;-94.584;2023-04-06T00:30:18;19.80;36.20
62809;DHT22;48848;39.002;-94.584;2023-04-06T00:32:44;19.90;34.70
62809;DHT22;48848;39.002;-94.584;2023-04-06T00:35:10;20.10;34.70
62809;DHT22;48848;39.002;-94.584;2023-04-06T00:37:36;20.40;34.70
62809;DHT22;48848;39.002;-94.584;2023-04-06T00:40:02;20.60;35.50
62809;DHT22;48848;39.002;-94.584;2023-04-06T00:42:28;20.50;35.00
62809;DHT22;48848;39.002;-94.584;2023-04-06T00:45:00;20.30;35.00
62809;DHT22;48848;39.002;-94.584;2023-04-06T00:47:26;20.30;34.90
62809;DHT22;48848;39.002;-94.584;2023-04-06T00:49:56;20.30;35.20
62809;DHT22;48848;39.002;-94.584;2023-04-06T00:52:22;20.20;34.60
62809;DHT22;48848;39.002;-94.584;2023-04-06T00:54:48;20.10;34.50
62809;DHT22;48848;39.002;-94.584;2023-04-06T00:57:14;20.20;34.50
62809;DHT22;48848;39.002;-94.584;2023-04-06T00:59:40;20.20;34.20
62809;DHT22;48848;39.002;-94.584;2023-04-06T01:02:06;20.10;34.00
62809;DHT22;48848;39.002;-94.584;2023-04-06T01:04:33;20.10;33.90
62809;DHT22;48848;39.002;-94.584;2023-04-06T01:06:59;20.10;34.00
62809;DHT22;48848;39.002;-94.584;2023-04-06T01:09:27;20.10;33.90
62809;DHT22;48848;39.002;-94.584;2023-04-06T01:11:53;20.00;33.90
62809;DHT22;48848;39.002;-94.584;2023-04-06T01:14:18;20.10;33.90
62809;DHT22;48848;39.002;-94.584;2023-04-06T01:16:44;20.00;33.90
62809;DHT22;48848;39.002;-94.584;2023-04-06T01:19:11;20.00;33.90
62809;DHT22;48848;39.002;-94.584;2023-04-06T01:21:37;20.00;34.00
62809;DHT22;48848;39.002;-94.584;2023-04-06T01:24:03;20.00;33.90
62809;DHT22;48848;39.002;-94.584;2023-04-06T01:26:31;19.90;33.90
62809;DHT22;48848;39.002;-94.584;2023-04-06T01:28:57;19.90;33.70
62809;DHT22;48848;39.002;-94.584;2023-04-06T01:31:23;19.90;33.70
62809;DHT22;48848;39.002;-94.584;2023-04-06T01:33:50;19.90;33.90
62809;DHT22;48848;39.002;-94.584;2023-04-06T01:36:16;19.90;34.00
62809;DHT22;48848;39.002;-94.584;2023-04-06T01:38:42;19.80;33.80
62809;DHT22;48848;39.002;-94.584;2023-04-06T01:41:08;19.80;34.30
62809;DHT22;48848;39.002;-94.584;2023-04-06T01:43:34;19.80;34.10
62809;DHT22;48848;39.002;-94.584;2023-04-06T01:46:00;19.80;34.20
62809;DHT22;48848;39.002;-94.584;2023-04-06T01:48:26;19.80;34.20
62809;DHT22;48848;39.002;-94.584;2023-04-06T01:50:52;19.80;34.20
62809;DHT22;48848;39.002;-94.584;2023-04-06T01:53:18;19.70;34.10
62809;DHT22;48848;39.002;-94.584;2023-04-06T01:55:44;19.70;34.00
62809;DHT22;48848;39.002;-94.584;2023-04-06T01:58:11;19.70;33.90
62809;DHT22;48848;39.002;-94.584;2023-04-06T02:00:37;19.70;33.90
62809;DHT22;48848;39.002;-94.584;2023-04-06T02:03:02;19.70;33.90
62809;DHT22;48848;39.002;-94.584;2023-04-06T02:05:29;19.70;33.90
62809;DHT22;48848;39.002;-94.584;2023-04-06T02:07:56;19.60;34.90
62809;DHT22;48848;39.002;-94.584;2023-04-06T02:10:22;19.60;34.00
62809;DHT22;48848;39.002;-94.584;2023-04-06T02:12:48;19.60;34.00
62809;DHT22;48848;39.002;-94.584;2023-04-06T02:15:14;19.60;34.10
62809;DHT22;48848;39.002;-94.584;2023-04-06T02:17:40;19.50;33.90
62809;DHT22;48848;39.002;-94.584;2023-04-06T02:20:06;19.50;33.80
62809;DHT22;48848;39.002;-94.584;2023-04-06T02:22:33;19.50;33.80
62809;DHT22;48848;39.002;-94.584;2023-04-06T02:24:59;19.40;35.00
62809;DHT22;48848;39.002;-94.584;2023-04-06T02:27:25;19.40;35.70
62809;DHT22;48848;39.002;-94.584;2023-04-06T02:29:51;19.70;35.60
62809;DHT22;48848;39.002;-94.584;2023-04-06T02:32:17;20.00;34.80
62809;DHT22;48848;39.002;-94.584;2023-04-06T02:34:43;20.10;34.30
62809;DHT22;48848;39.002;-94.584;2023-04-06T02:37:09;20.10;34.20
62809;DHT22;48848;39.002;-94.584;2023-04-06T02:39:35;20.00;34.10
62809;DHT22;48848;39.002;-94.584;2023-04-06T02:42:01;19.90;34.10
62809;DHT22;48848;39.002;-94.584;2023-04-06T02:44:27;19.80;34.60
62809;DHT22;48848;39.002;-94.584;2023-04-06T02:46:52;19.80;34.90
62809;DHT22;48848;39.002;-94.584;2023-04-06T02:49:18;19.70;35.00
62809;DHT22;48848;39.002;-94.584;2023-04-06T02:51:44;19.80;34.80
62809;DHT22;48848;39.002;-94.584;2023-04-06T02:54:10;19.70;35.00
62809;DHT22;48848;39.002;-94.584;2023-04-06T02:56:36;19.60;35.00
62809;DHT22;48848;39.002;-94.584;2023-04-06T02:59:02;19.60;34.90
62809;DHT22;48848;39.002;-94.584;2023-04-06T03:01:27;19.40;35.00
62809;DHT22;48848;39.002;-94.584;2023-04-06T03:03:53;19.30;35.60
62809;DHT22;48848;39.002;-94.584;2023-04-06T03:06:19;19.10;35.60
62809;DHT22;48848;39.002;-94.584;2023-04-06T03:08:45;19.10;35.40
62809;DHT22;48848;39.002;-94.584;2023-04-06T03:11:11;19.00;35.80
62809;DHT22;48848;39.002;-94.584;2023-04-06T03:13:37;18.90;36.10
62809;DHT22;48848;39.002;-94.584;2023-04-06T03:16:04;18.60;37.00
62809;DHT22;48848;39.002;-94.584;2023-04-06T03:18:32;18.70;36.90
62809;DHT22;48848;39.002;-94.584;2023-04-06T03:20:58;18.50;37.10
62809;DHT22;48848;39.002;-94.584;2023-04-06T03:23:25;18.30;37.20
62809;DHT22;48848;39.002;-94.584;2023-04-06T03:25:51;18.30;37.20
62809;DHT22;48848;39.002;-94.584;2023-04-06T03:28:17;18.30;37.40
62809;DHT22;48848;39.002;-94.584;2023-04-06T03:30:43;18.30;37.30
62809;DHT22;48848;39.002;-94.584;2023-04-06T03:33:09;18.10;38.00
62809;DHT22;48848;39.002;-94.584;2023-04-06T03:35:35;17.70;38.50
62809;DHT22;48848;39.002;-94.584;2023-04-06T03:38:02;17.60;39.00
62809;DHT22;48848;39.002;-94.584;2023-04-06T03:40:28;17.80;38.60
62809;DHT22;48848;39.002;-94.584;2023-04-06T03:42:54;17.80;38.80
62809;DHT22;48848;39.002;-94.584;2023-04-06T03:45:20;17.90;38.50
62809;DHT22;48848;39.002;-94.584;2023-04-06T03:47:46;17.80;38.90
62809;DHT22;48848;39.002;-94.584;2023-04-06T03:50:11;17.90;39.00
62809;DHT22;48848;39.002;-94.584;2023-04-06T03:52:37;17.80;38.80
62809;DHT22;48848;39.002;-94.584;2023-04-06T03:55:03;17.70;39.00
62809;DHT22;48848;39.002;-94.584;2023-04-06T03:57:29;17.90;38.70
62809;DHT22;48848;39.002;-94.584;2023-04-06T03:59:55;18.00;38.30
62809;DHT22;48848;39.002;-94.584;2023-04-06T04:02:21;17.90;38.40
62809;DHT22;48848;39.002;-94.584;2023-04-06T04:04:47;17.50;39.20
62809;DHT22;48848;39.002;-94.584;2023-04-06T04:07:13;17.40;39.40
62809;DHT22;48848;39.002;-94.584;2023-04-06T04:09:39;17.80;38.60
62809;DHT22;48848;39.002;-94.584;2023-04-06T04:12:05;17.90;38.30
62809;DHT22;48848;39.002;-94.584;2023-04-06T04:14:31;18.30;37.50
62809;DHT22;48848;39.002;-94.584;2023-04-06T04:16:57;18.60;36.90
62809;DHT22;48848;39.002;-94.584;2023-04-06T04:19:23;18.70;36.50
62809;DHT22;48848;39.002;-94.584;2023-04-06T04:21:49;18.70;36.30
62809;DHT22;48848;39.002;-94.584;2023-04-06T04:24:14;18.80;36.10
62809;DHT22;48848;39.002;-94.584;2023-04-06T04:26:40;18.80;36.00
62809;DHT22;48848;39.002;-94.584;2023-04-06T04:29:06;18.90;36.00
62809;DHT22;48848;39.002;-94.584;2023-04-06T04:31:32;18.90;35.90
62809;DHT22;48848;39.002;-94.584;2023-04-06T04:33:59;18.90;35.70
62809;DHT22;48848;39.002;-94.584;2023-04-06T04:36:25;18.90;35.60
62809;DHT22;48848;39.002;-94.584;2023-04-06T04:38:51;18.90;35.50
62809;DHT22;48848;39.002;-94.584;2023-04-06T04:41:18;18.90;35.40
62809;DHT22;48848;39.002;-94.584;2023-04-06T04:43:44;18.80;35.60
62809;DHT22;48848;39.002;-94.584;2023-04-06T04:46:10;18.80;35.60
62809;DHT22;48848;39.002;-94.584;2023-04-06T04:48:36;18.80;35.50
62809;DHT22;48848;39.002;-94.584;2023-04-06T04:51:02;18.90;35.50
62809;DHT22;48848;39.002;-94.584;2023-04-06T04:53:27;18.90;35.40
62809;DHT22;48848;39.002;-94.584;2023-04-06T04:55:53;18.80;35.40
62809;DHT22;48848;39.002;-94.584;2023-04-06T04:58:19;18.80;35.50
62809;DHT22;48848;39.002;-94.584;2023-04-06T05:00:45;18.80;35.40
62809;DHT22;48848;39.002;-94.584;2023-04-06T05:03:18;18.80;35.40
62809;DHT22;48848;39.002;-94.584;2023-04-06T05:05:45;18.80;35.40
62809;DHT22;48848;39.002;-94.584;2023-04-06T05:08:11;18.70;35.30
62809;DHT22;48848;39.002;-94.584;2023-04-06T05:10:37;18.60;35.60
62809;DHT22;48848;39.002;-94.584;2023-04-06T05:13:03;18.50;36.00
62809;DHT22;48848;39.002;-94.584;2023-04-06T05:15:29;18.20;36.80
62809;DHT22;48848;39.002;-94.584;2023-04-06T05:17:55;18.20;36.60
62809;DHT22;48848;39.002;-94.584;2023-04-06T05:20:21;18.20;36.60
62809;DHT22;48848;39.002;-94.584;2023-04-06T05:22:47;18.40;36.10
62809;DHT22;48848;39.002;-94.584;2023-04-06T05:25:14;18.50;35.80
62809;DHT22;48848;39.002;-94.584;2023-04-06T05:27:40;18.50;35.70
62809;DHT22;48848;39.002;-94.584;2023-04-06T05:30:06;18.50;35.60
62809;DHT22;48848;39.002;-94.584;2023-04-06T05:32:32;18.40;35.50
62809;DHT22;48848;39.002;-94.584;2023-04-06T05:34:58;18.40;35.50
62809;DHT22;48848;39.002;-94.584;2023-04-06T05:37:24;18.00;36.80
62809;DHT22;48848;39.002;-94.584;2023-04-06T05:39:50;17.60;37.60
62809;DHT22;48848;39.002;-94.584;2023-04-06T05:42:16;17.40;38.10
62809;DHT22;48848;39.002;-94.584;2023-04-06T05:44:42;17.20;38.60
62809;DHT22;48848;39.002;-94.584;2023-04-06T05:47:08;17.30;38.20
62809;DHT22;48848;39.002;-94.584;2023-04-06T05:49:34;17.80;37.20
62809;DHT22;48848;39.002;-94.584;2023-04-06T05:52:00;17.70;37.20
62809;DHT22;48848;39.002;-94.584;2023-04-06T05:54:26;17.80;37.00
62809;DHT22;48848;39.002;-94.584;2023-04-06T05:56:52;17.20;38.10
62809;DHT22;48848;39.002;-94.584;2023-04-06T05:59:18;17.10;38.50
62809;DHT22;48848;39.002;-94.584;2023-04-06T06:01:44;16.90;38.80
62809;DHT22;48848;39.002;-94.584;2023-04-06T06:04:10;16.70;39.40
62809;DHT22;48848;39.002;-94.584;2023-04-06T06:06:36;16.90;38.90
62809;DHT22;48848;39.002;-94.584;2023-04-06T06:09:02;16.60;40.50
62809;DHT22;48848;39.002;-94.584;2023-04-06T06:11:29;16.60;39.80
62809;DHT22;48848;39.002;-94.584;2023-04-06T06:13:55;16.70;39.50
62809;DHT22;48848;39.002;-94.584;2023-04-06T06:16:21;16.80;39.20
62809;DHT22;48848;39.002;-94.584;2023-04-06T06:18:47;16.60;39.40
62809;DHT22;48848;39.002;-94.584;2023-04-06T06:21:13;16.30;40.10
62809;DHT22;48848;39.002;-94.584;2023-04-06T06:23:41;16.10;40.60
62809;DHT22;48848;39.002;-94.584;2023-04-06T06:26:07;16.00;40.70
62809;DHT22;48848;39.002;-94.584;2023-04-06T06:28:33;16.00;40.90
62809;DHT22;48848;39.002;-94.584;2023-04-06T06:30:59;15.80;40.90
62809;DHT22;48848;39.002;-94.584;2023-04-06T06:33:26;16.00;40.50
62809;DHT22;48848;39.002;-94.584;2023-04-06T06:35:52;15.90;40.80
62809;DHT22;48848;39.002;-94.584;2023-04-06T06:38:18;15.80;40.90
62809;DHT22;48848;39.002;-94.584;2023-04-06T06:40:44;15.80;41.10
62809;DHT22;48848;39.002;-94.584;2023-04-06T06:43:10;15.70;41.30
62809;DHT22;48848;39.002;-94.584;2023-04-06T06:45:36;15.70;41.30
62809;DHT22;48848;39.002;-94.584;2023-04-06T06:48:02;15.60;41.20
62809;DHT22;48848;39.002;-94.584;2023-04-06T06:50:28;15.60;41.40
62809;DHT22;48848;39.002;-94.584;2023-04-06T06:52:54;15.60;41.40
62809;DHT22;48848;39.002;-94.584;2023-04-06T06:55:20;15.60;41.50
62809;DHT22;48848;39.002;-94.584;2023-04-06T06:57:46;15.60;41.40
62809;DHT22;48848;39.002;-94.584;2023-04-06T07:00:12;15.60;41.50
62809;DHT22;48848;39.002;-94.584;2023-04-06T07:02:38;15.50;41.40
62809;DHT22;48848;39.002;-94.584;2023-04-06T07:05:04;15.50;41.50
62809;DHT22;48848;39.002;-94.584;2023-04-06T07:07:33;15.50;41.60
62809;DHT22;48848;39.002;-94.584;2023-04-06T07:10:00;15.40;41.70
62809;DHT22;48848;39.002;-94.584;2023-04-06T07:12:25;15.40;41.80
62809;DHT22;48848;39.002;-94.584;2023-04-06T07:14:51;15.40;41.80
62809;DHT22;48848;39.002;-94.584;2023-04-06T07:17:17;15.30;41.70
62809;DHT22;48848;39.002;-94.584;2023-04-06T07:19:43;15.30;41.70
62809;DHT22;48848;39.002;-94.584;2023-04-06T07:22:09;15.30;41.80
62809;DHT22;48848;39.002;-94.584;2023-04-06T07:24:35;15.30;41.80
62809;DHT22;48848;39.002;-94.584;2023-04-06T07:27:01;15.20;41.90
62809;DHT22;48848;39.002;-94.584;2023-04-06T07:29:27;15.20;41.90
62809;DHT22;48848;39.002;-94.584;2023-04-06T07:31:53;15.20;41.90
62809;DHT22;48848;39.002;-94.584;2023-04-06T07:34:20;15.10;41.90
62809;DHT22;48848;39.002;-94.584;2023-04-06T07:36:46;15.10;41.90
62809;DHT22;48848;39.002;-94.584;2023-04-06T07:39:11;15.10;42.00
62809;DHT22;48848;39.002;-94.584;2023-04-06T07:41:37;15.10;42.10
62809;DHT22;48848;39.002;-94.584;2023-04-06T07:44:03;15.10;42.00
62809;DHT22;48848;39.002;-94.584;2023-04-06T07:46:29;15.00;42.10
62809;DHT22;48848;39.002;-94.584;2023-04-06T07:48:56;15.00;42.10
62809;DHT22;48848;39.002;-94.584;2023-04-06T07:51:22;15.00;41.90
62809;DHT22;48848;39.002;-94.584;2023-04-06T07:53:48;15.00;42.10
62809;DHT22;48848;39.002;-94.584;2023-04-06T07:56:15;14.90;42.10
62809;DHT22;48848;39.002;-94.584;2023-04-06T07:58:41;14.90;42.10
62809;DHT22;48848;39.002;-94.584;2023-04-06T08:01:07;14.90;42.30
62809;DHT22;48848;39.002;-94.584;2023-04-06T08:03:33;14.80;42.20
62809;DHT22;48848;39.002;-94.584;2023-04-06T08:05:59;14.80;42.30
62809;DHT22;48848;39.002;-94.584;2023-04-06T08:08:25;14.80;42.50
62809;DHT22;48848;39.002;-94.584;2023-04-06T08:10:51;14.70;42.60
62809;DHT22;48848;39.002;-94.584;2023-04-06T08:13:16;14.70;42.60
62809;DHT22;48848;39.002;-94.584;2023-04-06T08:15:43;14.70;42.60
62809;DHT22;48848;39.002;-94.584;2023-04-06T08:18:08;14.70;42.50
62809;DHT22;48848;39.002;-94.584;2023-04-06T08:20:35;14.70;42.60
62809;DHT22;48848;39.002;-94.584;2023-04-06T08:23:01;14.70;42.60
62809;DHT22;48848;39.002;-94.584;2023-04-06T08:25:26;14.60;42.50
62809;DHT22;48848;39.002;-94.584;2023-04-06T08:27:52;14.60;42.60
62809;DHT22;48848;39.002;-94.584;2023-04-06T08:30:18;14.60;42.60
62809;DHT22;48848;39.002;-94.584;2023-04-06T08:32:45;14.50;42.70
62809;DHT22;48848;39.002;-94.584;2023-04-06T08:35:11;14.40;42.80
62809;DHT22;48848;39.002;-94.584;2023-04-06T08:37:37;14.40;42.90
62809;DHT22;48848;39.002;-94.584;2023-04-06T08:40:03;14.50;43.00
62809;DHT22;48848;39.002;-94.584;2023-04-06T08:42:31;14.40;42.90
62809;DHT22;48848;39.002;-94.584;2023-04-06T08:44:58;14.40;43.00
62809;DHT22;48848;39.002;-94.584;2023-04-06T08:47:24;14.40;43.00
62809;DHT22;48848;39.002;-94.584;2023-04-06T08:49:50;14.30;42.90
62809;DHT22;48848;39.002;-94.584;2023-04-06T08:52:17;14.40;42.50
62809;DHT22;48848;39.002;-94.584;2023-04-06T08:54:43;14.90;41.80
62809;DHT22;48848;39.002;-94.584;2023-04-06T08:57:09;15.50;40.50
62809;DHT22;48848;39.002;-94.584;2023-04-06T08:59:35;15.90;39.50
62809;DHT22;48848;39.002;-94.584;2023-04-06T09:02:03;15.60;40.10
62809;DHT22;48848;39.002;-94.584;2023-04-06T09:04:30;15.30;40.80
62809;DHT22;48848;39.002;-94.584;2023-04-06T09:06:57;15.10;41.60
62809;DHT22;48848;39.002;-94.584;2023-04-06T09:09:23;14.90;42.00
62809;DHT22;48848;39.002;-94.584;2023-04-06T09:11:50;14.70;42.20
62809;DHT22;48848;39.002;-94.584;2023-04-06T09:14:32;14.60;42.40
62809;DHT22;48848;39.002;-94.584;2023-04-06T09:16:58;14.60;42.70
62809;DHT22;48848;39.002;-94.584;2023-04-06T09:19:24;14.40;42.90
62809;DHT22;48848;39.002;-94.584;2023-04-06T09:21:50;14.50;42.80
62809;DHT22;48848;39.002;-94.584;2023-04-06T09:24:26;14.40;42.90
62809;DHT22;48848;39.002;-94.584;2023-04-06T09:26:52;14.40;42.90
62809;DHT22;48848;39.002;-94.584;2023-04-06T09:29:24;14.40;42.90
62809;DHT22;48848;39.002;-94.584;2023-04-06T09:32:01;14.30;43.00
62809;DHT22;48848;39.002;-94.584;2023-04-06T09:34:27;14.20;43.00
62809;DHT22;48848;39.002;-94.584;2023-04-06T09:36:53;14.20;43.20
62809;DHT22;48848;39.002;-94.584;2023-04-06T09:39:21;14.10;43.30
62809;DHT22;48848;39.002;-94.584;2023-04-06T09:41:51;14.20;43.30
62809;DHT22;48848;39.002;-94.584;2023-04-06T09:44:17;14.10;43.20
62809;DHT22;48848;39.002;-94.584;2023-04-06T09:46:44;14.20;43.30
62809;DHT22;48848;39.002;-94.584;2023-04-06T09:49:11;14.70;42.40
62809;DHT22;48848;39.002;-94.584;2023-04-06T09:51:38;15.30;41.00
62809;DHT22;48848;39.002;-94.584;2023-04-06T09:54:04;15.70;39.90
62809;DHT22;48848;39.002;-94.584;2023-04-06T09:56:39;15.50;40.10
62809;DHT22;48848;39.002;-94.584;2023-04-06T09:59:13;15.20;40.90
62809;DHT22;48848;39.002;-94.584;2023-04-06T10:01:39;14.90;41.70
62809;DHT22;48848;39.002;-94.584;2023-04-06T10:06:42;14.50;42.60
62809;DHT22;48848;39.002;-94.584;2023-04-06T10:09:09;14.40;42.90
62809;DHT22;48848;39.002;-94.584;2023-04-06T10:11:36;14.30;43.00
62809;DHT22;48848;39.002;-94.584;2023-04-06T10:14:02;14.30;43.20
62809;DHT22;48848;39.002;-94.584;2023-04-06T10:16:28;14.20;43.00
62809;DHT22;48848;39.002;-94.584;2023-04-06T10:19:00;14.20;43.20
62809;DHT22;48848;39.002;-94.584;2023-04-06T10:21:26;14.10;43.30
62809;DHT22;48848;39.002;-94.584;2023-04-06T10:23:59;14.10;43.30
62809;DHT22;48848;39.002;-94.584;2023-04-06T10:26:26;14.00;43.30
62809;DHT22;48848;39.002;-94.584;2023-04-06T10:28:52;14.00;43.40
62809;DHT22;48848;39.002;-94.584;2023-04-06T10:31:25;14.00;43.50
62809;DHT22;48848;39.002;-94.584;2023-04-06T10:33:55;14.10;43.20
62809;DHT22;48848;39.002;-94.584;2023-04-06T10:36:23;14.70;41.90
62809;DHT22;48848;39.002;-94.584;2023-04-06T10:38:53;15.40;40.70
62809;DHT22;48848;39.002;-94.584;2023-04-06T10:41:19;15.90;39.70
62809;DHT22;48848;39.002;-94.584;2023-04-06T10:43:46;16.20;39.10
62809;DHT22;48848;39.002;-94.584;2023-04-06T10:46:24;16.50;38.70
62809;DHT22;48848;39.002;-94.584;2023-04-06T10:48:50;16.70;38.30
62809;DHT22;48848;39.002;-94.584;2023-04-06T10:51:17;16.90;38.20
62809;DHT22;48848;39.002;-94.584;2023-04-06T10:53:44;17.00;38.00
62809;DHT22;48848;39.002;-94.584;2023-04-06T10:56:11;17.00;37.80
62809;DHT22;48848;39.002;-94.584;2023-04-06T10:58:37;16.40;39.10
62809;DHT22;48848;39.002;-94.584;2023-04-06T11:01:03;15.90;40.30
62809;DHT22;48848;39.002;-94.584;2023-04-06T11:03:29;15.60;41.20
62809;DHT22;48848;39.002;-94.584;2023-04-06T11:05:55;15.70;41.40
62809;DHT22;48848;39.002;-94.584;2023-04-06T11:08:22;16.10;40.40
62809;DHT22;48848;39.002;-94.584;2023-04-06T11:10:47;16.60;39.30
62809;DHT22;48848;39.002;-94.584;2023-04-06T11:13:14;16.90;38.60
62809;DHT22;48848;39.002;-94.584;2023-04-06T11:15:40;17.20;38.20
62809;DHT22;48848;39.002;-94.584;2023-04-06T11:18:06;16.90;38.50
62809;DHT22;48848;39.002;-94.584;2023-04-06T11:20:32;16.40;39.70
62809;DHT22;48848;39.002;-94.584;2023-04-06T11:22:58;16.00;40.70
62809;DHT22;48848;39.002;-94.584;2023-04-06T11:25:25;15.70;41.40
62809;DHT22;48848;39.002;-94.584;2023-04-06T11:27:56;15.50;41.80
62809;DHT22;48848;39.002;-94.584;2023-04-06T11:30:22;15.50;41.90
62809;DHT22;48848;39.002;-94.584;2023-04-06T11:32:48;16.10;40.60
62809;DHT22;48848;39.002;-94.584;2023-04-06T11:35:21;16.60;39.40
62809;DHT22;48848;39.002;-94.584;2023-04-06T11:37:50;17.00;38.80
62809;DHT22;48848;39.002;-94.584;2023-04-06T11:40:20;17.00;38.60
62809;DHT22;48848;39.002;-94.584;2023-04-06T11:42:51;16.50;39.70
62809;DHT22;48848;39.002;-94.584;2023-04-06T11:45:17;16.10;40.70
62809;DHT22;48848;39.002;-94.584;2023-04-06T11:47:43;15.70;41.40
62809;DHT22;48848;39.002;-94.584;2023-04-06T11:50:12;15.50;41.80
62809;DHT22;48848;39.002;-94.584;2023-04-06T11:52:39;15.40;42.10
62809;DHT22;48848;39.002;-94.584;2023-04-06T11:55:12;15.50;42.10
62809;DHT22;48848;39.002;-94.584;2023-04-06T11:57:39;16.10;40.70
62809;DHT22;48848;39.002;-94.584;2023-04-06T12:00:06;16.60;39.40
62809;DHT22;48848;39.002;-94.584;2023-04-06T12:02:32;17.00;38.70
62809;DHT22;48848;39.002;-94.584;2023-04-06T12:04:58;16.90;38.60
62809;DHT22;48848;39.002;-94.584;2023-04-06T12:07:24;16.40;39.70
62809;DHT22;48848;39.002;-94.584;2023-04-06T12:09:50;16.00;40.70
62809;DHT22;48848;39.002;-94.584;2023-04-06T12:12:15;15.80;41.50
62809;DHT22;48848;39.002;-94.584;2023-04-06T12:14:41;15.60;41.80
62809;DHT22;48848;39.002;-94.584;2023-04-06T12:17:07;15.50;42.10
62809;DHT22;48848;39.002;-94.584;2023-04-06T12:19:33;15.50;42.20
62809;DHT22;48848;39.002;-94.584;2023-04-06T12:21:59;15.60;41.60
62809;DHT22;48848;39.002;-94.584;2023-04-06T12:24:25;16.10;40.40
62809;DHT22;48848;39.002;-94.584;2023-04-06T12:26:51;16.60;39.30
62809;DHT22;48848;39.002;-94.584;2023-04-06T12:29:16;17.00;38.40
62809;DHT22;48848;39.002;-94.584;2023-04-06T12:31:42;16.70;39.00
62809;DHT22;48848;39.002;-94.584;2023-04-06T12:34:10;16.20;40.00
62809;DHT22;48848;39.002;-94.584;2023-04-06T12:36:36;15.90;41.00
62809;DHT22;48848;39.002;-94.584;2023-04-06T12:39:02;15.70;41.80
62809;DHT22;48848;39.002;-94.584;2023-04-06T12:41:28;15.50;41.70
62809;DHT22;48848;39.002;-94.584;2023-04-06T12:43:54;15.50;42.00
62809;DHT22;48848;39.002;-94.584;2023-04-06T12:46:20;15.50;41.70
62809;DHT22;48848;39.002;-94.584;2023-04-06T12:48:46;15.80;40.80
62809;DHT22;48848;39.002;-94.584;2023-04-06T12:51:12;16.40;39.40
62809;DHT22;48848;39.002;-94.584;2023-04-06T12:53:38;16.90;38.50
62809;DHT22;48848;39.002;-94.584;2023-04-06T12:56:10;17.00;38.00
62809;DHT22;48848;39.002;-94.584;2023-04-06T12:58:37;16.50;39.00
62809;DHT22;48848;39.002;-94.584;2023-04-06T13:01:05;16.20;39.60
62809;DHT22;48848;39.002;-94.584;2023-04-06T13:03:32;16.00;40.10
62809;DHT22;48848;39.002;-94.584;2023-04-06T13:05:58;15.80;40.40
62809;DHT22;48848;39.002;-94.584;2023-04-06T13:08:24;15.70;40.80
62809;DHT22;48848;39.002;-94.584;2023-04-06T13:10:50;15.60;40.90
62809;DHT22;48848;39.002;-94.584;2023-04-06T13:13:27;15.50;41.50
62809;DHT22;48848;39.002;-94.584;2023-04-06T13:15:53;15.50;41.40
62809;DHT22;48848;39.002;-94.584;2023-04-06T13:18:21;15.50;41.70
62809;DHT22;48848;39.002;-94.584;2023-04-06T13:20:48;15.80;40.70
62809;DHT22;48848;39.002;-94.584;2023-04-06T13:23:14;16.50;39.20
62809;DHT22;48848;39.002;-94.584;2023-04-06T13:25:40;17.00;38.10
62809;DHT22;48848;39.002;-94.584;2023-04-06T13:28:06;17.00;37.70
62809;DHT22;48848;39.002;-94.584;2023-04-06T13:30:32;16.60;38.90
62809;DHT22;48848;39.002;-94.584;2023-04-06T13:32:58;16.30;39.40
62809;DHT22;48848;39.002;-94.584;2023-04-06T13:35:24;16.10;39.80
62809;DHT22;48848;39.002;-94.584;2023-04-06T13:37:50;15.90;40.40
62809;DHT22;48848;39.002;-94.584;2023-04-06T13:40:17;15.80;40.50
62809;DHT22;48848;39.002;-94.584;2023-04-06T13:42:44;15.70;40.80
62809;DHT22;48848;39.002;-94.584;2023-04-06T13:45:11;15.60;41.90
62809;DHT22;48848;39.002;-94.584;2023-04-06T13:47:37;15.50;41.40
62809;DHT22;48848;39.002;-94.584;2023-04-06T13:50:03;15.80;40.80
62809;DHT22;48848;39.002;-94.584;2023-04-06T13:52:29;16.40;39.70
62809;DHT22;48848;39.002;-94.584;2023-04-06T13:54:55;17.00;38.30
62809;DHT22;48848;39.002;-94.584;2023-04-06T13:57:21;17.40;37.30
62809;DHT22;48848;39.002;-94.584;2023-04-06T13:59:47;17.00;37.70
62809;DHT22;48848;39.002;-94.584;2023-04-06T14:02:15;16.70;38.30
62809;DHT22;48848;39.002;-94.584;2023-04-06T14:04:40;16.40;38.80
62809;DHT22;48848;39.002;-94.584;2023-04-06T14:07:06;16.20;39.40
62809;DHT22;48848;39.002;-94.584;2023-04-06T14:09:33;16.10;40.20
62809;DHT22;48848;39.002;-94.584;2023-04-06T14:11:59;16.10;40.20
62809;DHT22;48848;39.002;-94.584;2023-04-06T14:14:25;16.00;39.70
62809;DHT22;48848;39.002;-94.584;2023-04-06T14:16:51;16.00;39.70
62809;DHT22;48848;39.002;-94.584;2023-04-06T14:19:18;15.80;40.00
62809;DHT22;48848;39.002;-94.584;2023-04-06T14:21:44;15.80;40.20
62809;DHT22;48848;39.002;-94.584;2023-04-06T14:24:10;15.70;39.80
62809;DHT22;48848;39.002;-94.584;2023-04-06T14:26:37;15.60;40.20
62809;DHT22;48848;39.002;-94.584;2023-04-06T14:29:03;15.60;40.20
62809;DHT22;48848;39.002;-94.584;2023-04-06T14:31:30;15.80;39.70
62809;DHT22;48848;39.002;-94.584;2023-04-06T14:33:56;15.60;40.10
62809;DHT22;48848;39.002;-94.584;2023-04-06T14:36:22;15.60;40.30
62809;DHT22;48848;39.002;-94.584;2023-04-06T14:38:48;15.50;40.30
62809;DHT22;48848;39.002;-94.584;2023-04-06T14:41:17;15.50;40.20
62809;DHT22;48848;39.002;-94.584;2023-04-06T14:43:44;15.50;40.30
62809;DHT22;48848;39.002;-94.584;2023-04-06T14:46:10;15.50;40.20
62809;DHT22;48848;39.002;-94.584;2023-04-06T14:48:35;15.50;40.20
62809;DHT22;48848;39.002;-94.584;2023-04-06T14:51:02;15.50;40.10
62809;DHT22;48848;39.002;-94.584;2023-04-06T14:53:28;15.50;40.20
62809;DHT22;48848;39.002;-94.584;2023-04-06T14:55:54;15.40;39.70
62809;DHT22;48848;39.002;-94.584;2023-04-06T14:58:20;15.40;40.20
62809;DHT22;48848;39.002;-94.584;2023-04-06T15:00:46;15.40;40.20